
Distance (Route):
Temperature : -54.1°C
Humidity : 57.8%
Pressure : -1.0hPa| Receiver | Date | Latitude | Longitude | Direction | Speed | Altitude | Climb | Temperature | Humidity | Pressure | Voltage | Killtimer | Uptime | BKT | XDATA |
|---|---|---|---|---|---|---|---|---|---|---|---|---|---|---|---|
| DJ2DS-15 | 2026-09-04 01:16:16 | 55.30653 | 1.15575 | 82° | 223km/h | 11385m | -5.6m/s | -54.1°C | 57.8% | -1.0hPa | 2.5V | 00:00:00 | 00:00:00 | 00:00:00 | |
| DJ2DS-15 | 2026-09-04 01:15:38 | 55.30343 | 1.11512 | 81° | 221km/h | 11618m | -5.5m/s | -56.4°C | 61.2% | -1.0hPa | 2.5V | 00:00:00 | 00:00:00 | 00:00:00 | |
| DJ2DS-15 | 2026-09-04 01:15:02 | 55.30183 | 1.08899 | 82° | 219km/h | 11765m | -5.4m/s | -57.5°C | 58.0% | -1.0hPa | 2.5V | 00:00:00 | 00:00:00 | 00:00:00 | |
| DJ2DS-15 | 2026-09-04 01:14:26 | 55.29886 | 1.03842 | 85° | 235km/h | 12030m | -5.3m/s | -59.6°C | 65.2% | -1.0hPa | 2.5V | 00:00:00 | 00:00:00 | 00:00:00 | |
| DJ2DS-15 | 2026-09-04 01:13:50 | 55.29664 | 0.99850 | 83° | 245km/h | 12240m | -5.8m/s | -60.9°C | 50.5% | -1.0hPa | 2.5V | 00:00:00 | 00:00:00 | 00:00:00 | |
| DJ2DS-15 | 2026-09-04 01:12:38 | 55.29518 | 0.95117 | 85° | 201km/h | 12514m | -5.5m/s | -59.2°C | 14.5% | -1.0hPa | 2.5V | 00:00:00 | 00:00:00 | 00:00:00 | |
| DJ2DS-15 | 2026-09-04 01:07:49 | 55.28250 | 0.76305 | 74° | 111km/h | 14370m | -6.5m/s | -54.8°C | 1.3% | -1.0hPa | 2.5V | 00:00:00 | 00:00:00 | 00:00:00 | |
| DJ2DS-15 | 2026-09-04 01:07:42 | 55.28193 | 0.75933 | 80° | 119km/h | 14419m | -7.3m/s | -54.9°C | 4.4% | 0hPa | 2.5V | 00:00:00 | 02:17:29 | 00:00:00 | |
| DJ2DS-15 | 2026-09-04 01:07:14 | 55.28122 | 0.74432 | 86° | 110km/h | 14616m | -7.4m/s | -54.0°C | 4.1% | 0hPa | 2.5V | 00:00:00 | 02:17:01 | 00:00:00 | |
| DJ2DS-15 | 2026-09-04 01:07:13 | 55.28120 | 0.74386 | 83° | 102km/h | 14623m | -7.2m/s | -54.0°C | 1.2% | -1.0hPa | 2.5V | 00:00:00 | 00:00:00 | 00:00:00 | |
| DJ2DS-15 | 2026-09-04 01:06:54 | 55.28049 | 0.73478 | 76° | 111km/h | 14758m | -7.6m/s | -53.5°C | 3.9% | 0hPa | 2.5V | 00:00:00 | 02:16:41 | 00:00:00 | |
| DJ2DS-15 | 2026-09-04 01:06:34 | 55.27935 | 0.72509 | 78° | 115km/h | 14906m | -7.7m/s | -54.1°C | 4.1% | 0hPa | 2.6V | 00:00:00 | 02:16:21 | 00:00:00 | |
| DJ2DS-15 | 2026-09-04 01:06:14 | 55.27838 | 0.71507 | 89° | 100km/h | 15057m | -8.2m/s | -54.4°C | 4.2% | 0hPa | 2.6V | 00:00:00 | 02:16:01 | 00:00:00 | |
| DJ2DS-15 | 2026-09-04 01:05:54 | 55.27776 | 0.70622 | 86° | 93km/h | 15211m | -7.2m/s | -53.1°C | 3.8% | 0hPa | 2.6V | 08:11:00 | 02:15:41 | 00:00:00 | |
| DJ2DS-15 | 2026-09-04 01:05:34 | 55.27672 | 0.69820 | 78° | 99km/h | 15367m | -7.8m/s | -53.2°C | 3.8% | 0hPa | 2.5V | 00:00:00 | 02:15:21 | 00:00:00 | |
| DJ2DS-15 | 2026-09-04 01:05:14 | 55.27582 | 0.68962 | 76° | 99km/h | 15523m | -7.7m/s | -52.9°C | 3.7% | 0hPa | 2.5V | 00:00:00 | 02:15:01 | 00:00:00 | |
| DJ2DS-15 | 2026-09-04 01:04:54 | 55.27522 | 0.68108 | 76° | 99km/h | 15683m | -7.4m/s | -52.6°C | 3.6% | 0hPa | 2.5V | 00:00:00 | 02:14:41 | 00:00:00 | |
| DJ2DS-15 | 2026-09-04 01:04:34 | 55.27440 | 0.67245 | 87° | 84km/h | 15838m | -7.9m/s | -52.7°C | 3.6% | 0hPa | 2.5V | 00:00:00 | 02:14:21 | 00:00:00 | |
| DJ2DS-15 | 2026-09-04 01:04:14 | 55.27412 | 0.66497 | 77° | 75km/h | 15990m | -7.9m/s | -51.9°C | 3.4% | 0hPa | 2.5V | 00:00:00 | 02:14:01 | 00:00:00 | |
| DJ2DS-15 | 2026-09-04 01:03:49 | 55.27357 | 0.65593 | 75° | 78km/h | 16180m | -7.1m/s | -50.9°C | 3.2% | 0hPa | 2.5V | 00:00:00 | 02:13:36 | 00:00:00 | |
| DJ2DS-15 | 2026-09-04 01:03:06 | 55.27358 | 0.64085 | 100° | 53km/h | 16488m | -7.4m/s | -50.0°C | 3.0% | 0hPa | 2.5V | 00:00:00 | 02:12:53 | 00:00:00 | |
| DJ2DS-15 | 2026-09-04 01:02:46 | 55.27387 | 0.63619 | 94° | 53km/h | 16627m | -6.9m/s | -50.3°C | 3.1% | 0hPa | 2.5V | 00:00:00 | 02:12:33 | 00:00:00 | |
| DJ2DS-15 | 2026-09-04 01:02:26 | 55.27374 | 0.63154 | 104° | 33km/h | 16776m | -7.1m/s | -50.6°C | 3.0% | 0hPa | 2.5V | 08:15:00 | 02:12:13 | 00:00:00 | |
| DJ2DS-15 | 2026-09-04 01:02:24 | 55.27378 | 0.63119 | 101° | 37km/h | 16791m | -8.3m/s | -50.6°C | -1.0% | -1.0hPa | 2.6V | 00:00:00 | 00:00:00 | 00:00:00 | |
| DJ2DS-15 | 2026-09-04 01:00:00 | 55.27026 | 0.60152 | 82° | 64km/h | 18048m | -8.9m/s | 0°C | -1.0% | -1.0hPa | 2.6V | 00:00:00 | 00:00:00 | 00:00:00 | |
| DM0DOS-11 | 2026-09-04 00:55:15 | 55.26476 | 0.55201 | 337° | 15km/h | 20888m | -10.2m/s | 0°C | 0% | 0hPa | 2.6V | 08:22:39 | 02:04:57 | 00:00:00 | |
| DJ2DS-15 | 2026-09-04 00:55:12 | 55.26479 | 0.55200 | 355° | 16km/h | 20878m | -10.6m/s | 0°C | -1.0% | -1.0hPa | 2.6V | 00:00:00 | 00:00:00 | 00:00:00 | |
| DJ2DS-15 | 2026-09-04 00:53:59 | 55.26285 | 0.54267 | 73° | 26km/h | 21917m | -11.9m/s | 0°C | -1.0% | -1.0hPa | 2.6V | 00:00:00 | 00:00:00 | 00:00:00 | |
| DJ2DS-15 | 2026-09-04 00:51:35 | 55.26418 | 0.53299 | 285° | 20km/h | 23576m | -14.3m/s | 0°C | -1.0% | -1.0hPa | 2.6V | 00:00:00 | 00:00:00 | 00:00:00 | |
| DJ2DS-15 | 2026-09-04 00:47:23 | 55.26480 | 0.51852 | 125° | 24km/h | 27712m | 5.1m/s | -47.3°C | 0.5% | -1.0hPa | 2.6V | 00:00:00 | 00:00:00 | 00:00:00 | |
| DJ2DS-15 | 2026-09-04 00:43:46 | 55.26465 | 0.50878 | 165° | 11km/h | 26510m | 6.0m/s | -50.4°C | 0.6% | -1.0hPa | 2.6V | 00:00:00 | 00:00:00 | 00:00:00 | |
| DJ2DS-15 | 2026-09-04 00:42:34 | 55.26739 | 0.50768 | 149° | 22km/h | 26138m | 5.6m/s | -49.8°C | 0.5% | -1.0hPa | 2.6V | 00:00:00 | 00:00:00 | 00:00:00 | |
| DJ2DS-15 | 2026-09-04 00:41:22 | 55.26999 | 0.50167 | 126° | 16km/h | 25705m | 6.4m/s | -50.2°C | 0.5% | -1.0hPa | 2.6V | 00:00:00 | 00:00:00 | 00:00:00 | |
| DJ2DS-15 | 2026-09-04 00:40:46 | 55.27051 | 0.49773 | 73° | 24km/h | 25498m | 6.1m/s | 0°C | -1.0% | -1.0hPa | 2.6V | 00:00:00 | 00:00:00 | 00:00:00 | |
| DJ2DS-15 | 2026-09-04 00:34:45 | 55.27039 | 0.47948 | 154° | 20km/h | 23464m | 4.6m/s | -50.8°C | 0.6% | -1.0hPa | 2.6V | 00:00:00 | 00:00:00 | 00:00:00 | |
| DJ2DS-15 | 2026-09-04 00:32:21 | 55.27163 | 0.46374 | 76° | 13km/h | 22545m | 4.6m/s | -51.5°C | 0.7% | -1.0hPa | 2.6V | 00:00:00 | 00:00:00 | 00:00:00 | |
| DJ2DS-15 | 2026-09-04 00:31:09 | 55.27139 | 0.45866 | 108° | 27km/h | 22282m | 4.7m/s | -51.9°C | 0.7% | -1.0hPa | 2.6V | 00:00:00 | 00:00:00 | 00:00:00 | |
| DJ2DS-15 | 2026-09-04 00:30:52 | 55.27158 | 0.45668 | 83° | 24km/h | 22197m | 6.3m/s | -52.0°C | 3.6% | 0hPa | 2.6V | 00:00:00 | 01:40:39 | 00:00:00 | |
| DJ2DS-15 | 2026-09-04 00:30:34 | 55.27118 | 0.45446 | 63° | 26km/h | 22093m | 4.6m/s | 0°C | -1.0% | -1.0hPa | 2.6V | 00:00:00 | 00:00:00 | 00:00:00 | |
| DJ2DS-15 | 2026-09-04 00:30:31 | 55.27115 | 0.45436 | 61° | 27km/h | 22088m | 5.2m/s | -51.9°C | 3.5% | 0hPa | 2.6V | 00:00:00 | 01:40:18 | 00:00:00 | |
| DJ2DS-15 | 2026-09-04 00:29:57 | 55.26998 | 0.45118 | 71° | 20km/h | 21900m | 4.7m/s | 0°C | -1.0% | -1.0hPa | 2.6V | 00:00:00 | 00:00:00 | 00:00:00 | |
| DM0DOS-11 | 2026-09-04 00:28:01 | 55.26845 | 0.44057 | 95° | 24km/h | 21274m | 4.2m/s | 0°C | 0% | 0hPa | 2.6V | 00:00:00 | 01:37:43 | 00:00:00 | |
| DM0DOS-11 | 2026-09-04 00:27:49 | 55.26845 | 0.43961 | 83° | 26km/h | 21220m | 5.6m/s | 0°C | 0% | 0hPa | 2.7V | 00:00:00 | 01:37:33 | 00:00:00 | |
| DJ2DS-15 | 2026-09-04 00:27:32 | 55.26828 | 0.43768 | 86° | 38km/h | 21139m | 5.6m/s | -52.7°C | 0.7% | -1.0hPa | 2.6V | 00:00:00 | 00:00:00 | 00:00:00 | |
| DJ2DS-15 | 2026-09-04 00:26:56 | 55.26758 | 0.43301 | 67° | 24km/h | 20946m | 4.6m/s | -52.6°C | 0.7% | -1.0hPa | 2.6V | 00:00:00 | 00:00:00 | 00:00:00 | |
| DJ2DS-15 | 2026-09-04 00:25:44 | 55.26930 | 0.42483 | 105° | 42km/h | 20520m | 6.8m/s | -51.8°C | 0.7% | -1.0hPa | 2.6V | 00:00:00 | 00:00:00 | 00:00:00 | |
| DJ2DS-15 | 2026-09-04 00:25:37 | 55.26953 | 0.42368 | 112° | 53km/h | 20485m | 7.2m/s | -51.8°C | 3.5% | 0hPa | 2.6V | 00:00:00 | 01:35:24 | 00:00:00 | |
| DJ2DS-15 | 2026-09-04 00:25:17 | 55.27022 | 0.41920 | 102° | 49km/h | 20381m | 4.7m/s | -52.2°C | 3.5% | 0hPa | 0V | 00:00:00 | 01:35:04 | 00:00:00 | |
| DJ2DS-15 | 2026-09-04 00:24:57 | 55.27064 | 0.41498 | 101° | 49km/h | 20285m | 4.3m/s | -52.5°C | 3.7% | 0hPa | 0V | 00:00:00 | 01:34:44 | 00:00:00 | |
| DJ2DS-15 | 2026-09-04 00:23:20 | 55.26976 | 0.39456 | 58° | 47km/h | 19713m | 6.0m/s | -53.6°C | 0.8% | -1.0hPa | 0V | 00:00:00 | 00:00:00 | 00:00:00 | |
| DJ2DS-15 | 2026-09-04 00:22:44 | 55.26884 | 0.39126 | 63° | 46km/h | 19619m | 5.1m/s | -53.0°C | -1.0% | -1.0hPa | 0V | 00:00:00 | 00:00:00 | 00:00:00 | |
| DJ2DS-15 | 2026-09-04 00:21:31 | 55.26640 | 0.37975 | 82° | 33km/h | 19258m | 4.7m/s | 0°C | -1.0% | -1.0hPa | 0V | 00:00:00 | 00:00:00 | 00:00:00 | |
| DJ2DS-15 | 2026-09-04 00:17:55 | 55.25897 | 0.34255 | 75° | 55km/h | 18197m | 5.3m/s | -54.0°C | -1.0% | -1.0hPa | 0V | 00:00:00 | 00:00:00 | 00:00:00 | |
| DJ2DS-15 | 2026-09-04 00:17:32 | 55.25823 | 0.33730 | 72° | 57km/h | 18086m | 3.9m/s | 0°C | 0% | 0hPa | 0V | 00:00:00 | 01:27:19 | 00:00:00 |